createdAt,value
2022-09-20T00:01:15.084Z,17.83
2022-09-20T00:03:45.233Z,13.20
2022-09-20T00:06:14.922Z,15.77
2022-09-20T00:08:43.042Z,16.20
2022-09-20T00:11:16.191Z,14.80
2022-09-20T00:13:45.769Z,15.83
2022-09-20T00:16:22.813Z,15.67
2022-09-20T00:18:56.931Z,15.07
2022-09-20T00:21:27.154Z,18.57
2022-09-20T00:23:54.584Z,12.70
2022-09-20T00:26:22.836Z,15.03
2022-09-20T00:28:50.165Z,14.97
2022-09-20T00:31:18.768Z,17.13
2022-09-20T00:34:04.845Z,14.43
2022-09-20T00:36:31.836Z,14.00
2022-09-20T00:39:01.960Z,15.23
2022-09-20T00:41:30.021Z,15.97
2022-09-20T00:43:57.876Z,14.73
2022-09-20T00:46:36.710Z,16.67
2022-09-20T00:49:28.086Z,15.93
2022-09-20T00:52:00.884Z,14.70
2022-09-20T00:54:30.691Z,16.73
2022-09-20T00:56:58.153Z,18.27
2022-09-20T00:59:34.840Z,13.90
2022-09-20T01:02:08.837Z,15.10
2022-09-20T01:04:38.983Z,16.63
2022-09-20T01:07:08.353Z,14.67
2022-09-20T01:09:35.511Z,17.23
2022-09-20T01:12:07.050Z,17.53
2022-09-20T01:14:35.076Z,14.20
2022-09-20T01:17:05.940Z,16.43
2022-09-20T01:19:46.986Z,14.20
2022-09-20T01:22:37.528Z,17.90
2022-09-20T01:25:35.822Z,13.23
2022-09-20T01:28:02.913Z,13.17
2022-09-20T01:30:44.122Z,15.43
2022-09-20T01:33:32.667Z,15.00
2022-09-20T01:36:04.361Z,13.27
2022-09-20T01:38:56.830Z,18.33
2022-09-20T01:41:26.568Z,17.07
2022-09-20T01:44:14.717Z,14.20
2022-09-20T01:46:44.063Z,14.47
2022-09-20T01:49:44.193Z,17.90
2022-09-20T01:52:47.449Z,14.90
2022-09-20T01:55:36.242Z,14.03
2022-09-20T01:58:10.608Z,14.53
2022-09-20T02:01:05.991Z,15.43
2022-09-20T02:03:54.203Z,15.30
2022-09-20T02:06:39.611Z,13.50
2022-09-20T02:09:09.858Z,13.67
2022-09-20T02:12:07.475Z,13.70
2022-09-20T02:15:08.423Z,15.23
2022-09-20T02:18:00.668Z,13.70
2022-09-20T02:20:42.157Z,15.03
2022-09-20T02:23:33.120Z,12.20
2022-09-20T02:26:41.011Z,12.33
2022-09-20T02:29:40.246Z,15.00
2022-09-20T02:32:28.790Z,13.83
2022-09-20T02:35:17.184Z,16.43
2022-09-20T02:38:19.547Z,12.10
2022-09-20T02:40:46.911Z,16.67
2022-09-20T02:43:34.648Z,16.87
2022-09-20T02:46:13.114Z,17.20
2022-09-20T02:49:18.611Z,12.57
2022-09-20T02:51:52.768Z,15.33
2022-09-20T02:54:45.443Z,15.27
2022-09-20T02:57:19.659Z,15.87
2022-09-20T03:00:07.122Z,13.20
2022-09-20T03:02:46.343Z,16.57
2022-09-20T03:05:27.907Z,14.93
2022-09-20T03:08:28.655Z,14.97
2022-09-20T03:11:20.153Z,14.50
2022-09-20T03:14:13.989Z,18.13
2022-09-20T03:17:05.374Z,13.93
2022-09-20T03:19:59.753Z,14.70
2022-09-20T03:22:41.676Z,15.83
2022-09-20T03:25:34.739Z,16.37
2022-09-20T03:28:34.138Z,12.80
2022-09-20T03:31:20.781Z,13.77
2022-09-20T03:34:04.997Z,13.67
2022-09-20T03:36:40.266Z,12.27
2022-09-20T03:39:26.549Z,12.13
2022-09-20T03:42:11.110Z,13.23
2022-09-20T03:44:47.118Z,12.23
2022-09-20T03:48:02.002Z,12.93
2022-09-20T03:50:50.470Z,11.57
2022-09-20T03:53:56.284Z,10.03
2022-09-20T03:56:58.855Z,12.10
2022-09-20T03:59:43.103Z,12.47
2022-09-20T04:02:21.944Z,14.53
2022-09-20T04:04:56.215Z,14.87
2022-09-20T04:08:02.481Z,14.77
2022-09-20T04:11:02.668Z,15.53
2022-09-20T04:13:35.235Z,13.83
2022-09-20T04:16:08.993Z,13.67
2022-09-20T04:19:04.943Z,14.63
2022-09-20T04:21:55.028Z,13.37
2022-09-20T04:24:43.095Z,17.10
2022-09-20T04:27:22.924Z,14.57
2022-09-20T04:29:59.291Z,15.90
2022-09-20T04:32:33.266Z,17.87
2022-09-20T04:35:23.587Z,15.73
2022-09-20T04:37:51.971Z,17.20
2022-09-20T04:40:45.014Z,14.57
2022-09-20T04:43:51.184Z,15.87
2022-09-20T04:46:37.980Z,15.40
2022-09-20T04:49:25.999Z,14.07
2022-09-20T04:52:20.447Z,17.17
2022-09-20T04:55:24.994Z,13.23
2022-09-20T04:58:21.200Z,14.20
2022-09-20T05:01:11.172Z,14.53
2022-09-20T05:03:55.306Z,17.23
2022-09-20T05:07:12.915Z,13.10
2022-09-20T05:09:57.688Z,13.30
2022-09-20T05:12:43.423Z,16.47
2022-09-20T05:15:17.621Z,15.40
2022-09-20T05:17:59.700Z,17.80
2022-09-20T05:20:42.732Z,18.13
2022-09-20T05:23:27.295Z,19.33
2022-09-20T05:26:34.250Z,17.17
2022-09-20T05:29:20.742Z,19.03
2022-09-20T05:31:58.919Z,18.73
2022-09-20T05:35:01.035Z,23.03
2022-09-20T05:37:58.432Z,17.77
2022-09-20T05:40:43.751Z,17.03
2022-09-20T05:43:14.500Z,17.10
2022-09-20T05:46:31.410Z,21.27
2022-09-20T05:49:29.416Z,18.23
2022-09-20T05:52:15.197Z,18.77
2022-09-20T05:54:54.909Z,17.87
2022-09-20T05:57:47.223Z,17.57
2022-09-20T06:00:20.801Z,16.77
2022-09-20T06:03:12.237Z,18.67
2022-09-20T06:06:05.157Z,18.27
2022-09-20T06:08:54.809Z,17.87
2022-09-20T06:11:36.210Z,18.73
2022-09-20T06:14:25.464Z,18.93
2022-09-20T06:17:06.333Z,19.17
2022-09-20T06:19:55.254Z,18.30
2022-09-20T06:22:24.763Z,18.97
2022-09-20T06:25:15.302Z,20.63
2022-09-20T06:27:50.220Z,20.63
2022-09-20T06:30:46.668Z,20.47
2022-09-20T06:33:22.559Z,21.20
2022-09-20T06:36:24.076Z,19.73
2022-09-20T06:39:40.487Z,23.43
2022-09-20T06:42:10.237Z,22.23
2022-09-20T06:44:41.382Z,19.50
2022-09-20T06:47:11.142Z,20.83
2022-09-20T06:49:39.467Z,19.50
2022-09-20T06:52:07.694Z,20.83
2022-09-20T06:54:34.739Z,19.40
2022-09-20T06:57:06.058Z,22.37
2022-09-20T06:59:33.172Z,17.33
2022-09-20T07:01:59.946Z,18.13
2022-09-20T07:04:26.972Z,19.10
2022-09-20T07:07:01.149Z,17.17
2022-09-20T07:09:28.247Z,19.43
2022-09-20T07:11:56.332Z,17.33
2022-09-20T07:14:23.466Z,14.73
2022-09-20T07:16:50.279Z,15.33
2022-09-20T07:19:17.124Z,17.17
2022-09-20T07:21:44.232Z,15.67
2022-09-20T07:24:11.068Z,15.17
2022-09-20T07:26:39.145Z,15.40
2022-09-20T07:29:07.883Z,14.50
2022-09-20T07:31:35.682Z,13.87
2022-09-20T07:34:02.422Z,13.17
2022-09-20T07:36:29.355Z,13.13
2022-09-20T07:38:56.303Z,14.10
2022-09-20T07:41:23.245Z,13.90
2022-09-20T07:43:51.077Z,13.83
2022-09-20T07:46:22.280Z,13.10
2022-09-20T07:48:49.206Z,15.67
2022-09-20T07:51:16.179Z,14.10
2022-09-20T07:53:42.973Z,13.57
2022-09-20T07:56:16.683Z,12.83
2022-09-20T07:58:47.424Z,12.37
2022-09-20T08:01:16.826Z,12.73
2022-09-20T08:03:46.526Z,15.37
2022-09-20T08:06:15.118Z,14.97
2022-09-20T08:08:42.396Z,14.00
2022-09-20T08:11:10.938Z,14.47
2022-09-20T08:16:36.948Z,15.90
2022-09-20T08:19:03.785Z,16.13
2022-09-20T08:21:32.782Z,16.37
2022-09-20T08:24:00.287Z,16.17
2022-09-20T08:26:28.632Z,16.97
2022-09-20T08:28:57.907Z,18.47
2022-09-20T08:31:26.947Z,17.20
2022-09-20T08:33:54.752Z,17.90
2022-09-20T08:36:24.642Z,19.67
2022-09-20T08:41:55.667Z,16.53
2022-09-20T08:44:36.031Z,16.57
2022-09-20T08:47:25.921Z,15.63
2022-09-20T08:49:57.839Z,15.90
2022-09-20T08:52:36.924Z,14.13
2022-09-20T08:55:16.804Z,15.50
2022-09-20T08:57:47.121Z,14.27
2022-09-20T09:00:20.122Z,14.93
2022-09-20T09:02:46.948Z,16.77
2022-09-20T09:05:23.190Z,17.13
2022-09-20T09:07:50.136Z,17.67
2022-09-20T09:10:17.117Z,17.90
2022-09-20T09:12:48.872Z,16.03
2022-09-20T09:15:30.127Z,14.93
2022-09-20T09:17:56.932Z,15.07
2022-09-20T09:20:24.715Z,14.93
2022-09-20T09:23:05.625Z,12.40
2022-09-20T09:25:38.069Z,12.37
2022-09-20T09:28:08.817Z,13.20
2022-09-20T09:30:37.317Z,11.47
2022-09-20T09:33:23.220Z,12.97
2022-09-20T09:36:06.105Z,11.07
2022-09-20T09:38:38.438Z,12.97
2022-09-20T09:41:25.320Z,12.20
2022-09-20T09:44:19.458Z,12.30
2022-09-20T09:46:46.265Z,14.40
2022-09-20T09:49:36.206Z,14.70
2022-09-20T09:52:17.854Z,12.93
2022-09-20T09:54:55.215Z,15.53
2022-09-20T09:57:52.018Z,13.13
2022-09-20T10:00:23.496Z,12.53
2022-09-20T10:03:09.103Z,12.30
2022-09-20T10:05:54.302Z,13.50
2022-09-20T10:08:58.897Z,11.83
2022-09-20T10:11:50.032Z,12.43
2022-09-20T10:14:25.696Z,11.33
2022-09-20T10:17:04.486Z,12.17
2022-09-20T10:20:08.111Z,10.63
2022-09-20T10:23:30.080Z,9.93
2022-09-20T10:25:58.078Z,10.40
2022-09-20T10:28:48.421Z,9.63
2022-09-20T10:31:35.680Z,12.53
2022-09-20T10:34:30.661Z,9.97
2022-09-20T10:36:59.566Z,11.17
2022-09-20T10:39:48.653Z,10.50
2022-09-20T10:42:59.239Z,10.40
2022-09-20T10:48:26.679Z,9.50
2022-09-20T10:51:08.754Z,8.60
2022-09-20T10:53:44.087Z,8.33
2022-09-20T10:56:35.568Z,10.13
2022-09-20T10:59:08.231Z,8.25
2022-09-20T11:01:54.881Z,10.17
2022-09-20T11:04:59.768Z,9.20
2022-09-20T11:07:32.791Z,12.67
2022-09-20T11:10:14.861Z,7.10
2022-09-20T11:13:00.862Z,8.73
2022-09-20T11:15:40.223Z,6.97
2022-09-20T11:18:13.239Z,6.60
2022-09-20T11:20:49.581Z,6.72
2022-09-20T11:23:21.532Z,7.07
2022-09-20T11:26:04.964Z,7.90
2022-09-20T11:28:42.575Z,7.95
2022-09-20T11:31:12.943Z,6.63
2022-09-20T11:33:45.781Z,9.85
2022-09-20T11:36:30.492Z,6.45
2022-09-20T11:39:17.156Z,6.45
2022-09-20T11:41:45.047Z,5.72
2022-09-20T11:44:15.522Z,7.07
2022-09-20T11:47:03.860Z,6.63
2022-09-20T11:50:08.284Z,4.80
2022-09-20T11:52:51.180Z,4.32
2022-09-20T11:55:29.105Z,4.45
2022-09-20T11:58:01.608Z,4.50
2022-09-20T12:00:35.285Z,3.67
2022-09-20T12:03:05.565Z,5.45
2022-09-20T12:05:41.672Z,5.28
2022-09-20T12:08:22.612Z,4.03
2022-09-20T12:11:04.291Z,4.53
2022-09-20T12:13:35.394Z,5.53
2022-09-20T12:16:07.161Z,4.53
2022-09-20T12:18:33.986Z,4.10
2022-09-20T12:21:16.013Z,4.47
2022-09-20T12:24:10.694Z,5.97
2022-09-20T12:26:40.452Z,4.55
2022-09-20T12:29:27.703Z,3.97
2022-09-20T12:31:56.891Z,4.22
2022-09-20T12:34:26.733Z,3.45
2022-09-20T12:36:56.531Z,2.90
2022-09-20T12:39:30.555Z,3.67
2022-09-20T12:42:06.545Z,3.80
2022-09-20T12:44:48.788Z,2.50
2022-09-20T12:47:26.487Z,2.88
2022-09-20T12:50:14.776Z,2.55
2022-09-20T12:52:50.387Z,3.10
2022-09-20T12:55:45.659Z,7.68
2022-09-20T12:58:15.353Z,5.47
2022-09-20T13:00:48.615Z,4.88
2022-09-20T13:03:15.443Z,2.40
2022-09-20T13:05:46.045Z,3.80
2022-09-20T13:08:20.623Z,2.03
2022-09-20T13:11:14.145Z,3.72
2022-09-20T13:13:50.189Z,5.30
2022-09-20T13:16:24.275Z,5.15
2022-09-20T13:19:05.662Z,8.02
2022-09-20T13:21:36.697Z,5.65
2022-09-20T13:24:04.443Z,8.40
2022-09-20T13:26:40.173Z,4.15
2022-09-20T13:29:30.502Z,3.38
2022-09-20T13:32:14.766Z,5.18
2022-09-20T13:34:41.546Z,2.60
2022-09-20T13:37:23.712Z,2.53
2022-09-20T13:39:55.429Z,3.92
2022-09-20T13:42:23.323Z,3.28
2022-09-20T13:44:50.257Z,4.80
2022-09-20T13:47:32.240Z,3.72
2022-09-20T13:50:22.397Z,3.42
2022-09-20T13:52:55.586Z,5.85
2022-09-20T13:55:39.799Z,4.20
2022-09-20T13:58:20.722Z,4.00
2022-09-20T14:00:59.039Z,3.95
2022-09-20T14:03:27.406Z,4.00
2022-09-20T14:06:00.645Z,4.18
2022-09-20T14:08:39.169Z,5.22
2022-09-20T14:11:11.735Z,5.03
2022-09-20T14:13:42.347Z,6.15
2022-09-20T14:16:10.155Z,7.03
2022-09-20T14:18:40.401Z,3.13
2022-09-20T14:21:11.737Z,7.72
2022-09-20T14:23:54.120Z,4.10
2022-09-20T14:26:22.464Z,3.97
2022-09-20T14:28:49.821Z,3.65
2022-09-20T14:31:27.664Z,5.63
2022-09-20T14:33:58.414Z,4.43
2022-09-20T14:36:28.005Z,2.17
2022-09-20T14:38:58.918Z,2.53
2022-09-20T14:41:35.879Z,1.92
2022-09-20T14:44:04.198Z,1.58
2022-09-20T14:46:36.425Z,3.17
2022-09-20T14:49:31.645Z,2.05
2022-09-20T14:52:26.849Z,1.98
2022-09-20T14:55:02.553Z,2.33
2022-09-20T14:57:32.263Z,13.50
2022-09-20T15:00:04.723Z,6.28
2022-09-20T15:02:34.995Z,3.93
2022-09-20T15:05:02.241Z,2.93
2022-09-20T15:07:30.392Z,3.60
2022-09-20T15:09:57.187Z,2.05
2022-09-20T15:12:24.116Z,2.05
2022-09-20T15:14:51.178Z,2.57
2022-09-20T15:17:20.829Z,1.30
2022-09-20T15:19:48.997Z,5.10
2022-09-20T15:22:16.183Z,1.60
2022-09-20T15:24:43.558Z,2.33
2022-09-20T15:27:12.282Z,12.67
2022-09-20T15:29:39.488Z,1.80
2022-09-20T15:32:07.040Z,1.50
2022-09-20T15:34:33.885Z,2.67
2022-09-20T15:37:00.633Z,4.37
2022-09-20T15:39:28.009Z,3.83
2022-09-20T15:41:54.843Z,5.23
2022-09-20T15:44:22.079Z,7.97
2022-09-20T15:46:51.030Z,7.83
2022-09-20T15:49:17.950Z,8.00
2022-09-20T15:51:46.341Z,7.35
2022-09-20T15:54:14.265Z,8.53
2022-09-20T15:56:41.728Z,11.17
2022-09-20T15:59:10.887Z,19.00
2022-09-20T16:01:40.453Z,12.80
2022-09-20T16:04:19.527Z,10.53
2022-09-20T16:06:49.668Z,14.03
2022-09-20T16:09:18.207Z,19.30
2022-09-20T16:11:45.702Z,59.57
2022-09-20T16:14:12.557Z,44.20
2022-09-20T16:16:40.785Z,16.80
2022-09-20T16:19:24.919Z,11.90
2022-09-20T16:21:58.289Z,6.63
2022-09-20T16:24:31.248Z,8.47
2022-09-20T16:27:00.751Z,15.13
2022-09-20T16:29:30.048Z,17.97
2022-09-20T16:31:58.617Z,29.83
2022-09-20T16:34:34.096Z,27.23
2022-09-20T16:37:11.978Z,11.20
2022-09-20T16:39:38.730Z,15.60
2022-09-20T16:42:07.518Z,6.13
2022-09-20T16:44:36.156Z,9.10
2022-09-20T16:47:07.097Z,11.83
2022-09-20T16:49:34.919Z,8.77
2022-09-20T16:52:01.853Z,7.10
2022-09-20T16:54:31.885Z,10.10
2022-09-20T16:56:59.271Z,19.30
2022-09-20T16:59:26.139Z,19.73
2022-09-20T17:01:53.011Z,21.33
2022-09-20T17:04:21.132Z,28.73
2022-09-20T17:06:49.011Z,15.60
2022-09-20T17:09:16.824Z,19.23
2022-09-20T17:11:45.960Z,16.70
2022-09-20T17:14:14.024Z,17.03
2022-09-20T17:16:41.988Z,13.00
2022-09-20T17:19:11.344Z,13.67
2022-09-20T17:21:49.887Z,17.37
2022-09-20T17:24:23.216Z,13.10
2022-09-20T17:26:51.204Z,13.03
2022-09-20T17:29:19.020Z,12.77
2022-09-20T17:31:54.107Z,11.90
2022-09-20T17:34:22.349Z,14.07
2022-09-20T17:36:50.831Z,13.67
2022-09-20T17:39:18.692Z,14.20
2022-09-20T17:41:47.437Z,21.73
2022-09-20T17:44:14.958Z,18.63
2022-09-20T17:46:44.163Z,21.20
2022-09-20T17:49:19.500Z,25.33
2022-09-20T17:51:52.063Z,28.77
2022-09-20T17:54:19.728Z,27.63
2022-09-20T17:56:48.872Z,24.73
2022-09-20T17:59:16.838Z,26.03
2022-09-20T18:01:45.162Z,26.63
2022-09-20T18:04:12.093Z,21.10
2022-09-20T18:06:46.336Z,20.60
2022-09-20T18:09:19.306Z,20.37
2022-09-20T18:11:51.525Z,19.33
2022-09-20T18:14:21.051Z,17.33
2022-09-20T18:16:47.866Z,37.47
2022-09-20T18:19:16.102Z,47.97
2022-09-20T18:21:43.500Z,57.20
2022-09-20T18:24:11.746Z,61.67
2022-09-20T18:26:39.548Z,55.53
2022-09-20T18:29:24.958Z,47.43
2022-09-20T18:31:54.538Z,27.80
2022-09-20T18:34:26.763Z,30.53
2022-09-20T18:36:55.600Z,21.90
2022-09-20T18:39:32.529Z,22.17
2022-09-20T18:42:00.178Z,18.57
2022-09-20T18:44:33.974Z,18.17
2022-09-20T18:47:02.644Z,23.47
2022-09-20T18:49:30.538Z,19.60
2022-09-20T18:51:57.876Z,21.30
2022-09-20T18:54:24.616Z,28.37
2022-09-20T18:56:52.008Z,38.03
2022-09-20T18:59:21.628Z,36.27
2022-09-20T19:01:48.548Z,34.70
2022-09-20T19:04:36.385Z,30.03
2022-09-20T19:07:16.953Z,28.70
2022-09-20T19:10:10.041Z,29.20
2022-09-20T19:12:42.597Z,26.10
2022-09-20T19:15:29.851Z,29.17
2022-09-20T19:18:06.457Z,31.27
2022-09-20T19:20:38.903Z,29.23
2022-09-20T19:23:17.939Z,25.23
2022-09-20T19:25:47.529Z,24.10
2022-09-20T19:28:15.949Z,25.93
2022-09-20T19:30:43.048Z,29.97
2022-09-20T19:33:18.129Z,24.17
2022-09-20T19:35:52.447Z,18.70
2022-09-20T19:38:22.171Z,19.47
2022-09-20T19:41:19.203Z,20.90
2022-09-20T19:44:18.261Z,16.80
2022-09-20T19:47:06.289Z,14.30
2022-09-20T19:50:16.094Z,13.77
2022-09-20T19:52:44.530Z,15.07
2022-09-20T19:55:13.309Z,14.87
2022-09-20T19:57:47.002Z,17.63
2022-09-20T20:00:16.551Z,16.53
2022-09-20T20:02:44.742Z,14.70
2022-09-20T20:05:19.484Z,16.50
2022-09-20T20:07:56.333Z,14.33
2022-09-20T20:10:26.145Z,20.93
2022-09-20T20:13:35.061Z,18.67
2022-09-20T20:16:05.027Z,16.60
2022-09-20T20:18:43.698Z,14.37
2022-09-20T20:21:20.282Z,20.67
2022-09-20T20:24:20.000Z,16.33
2022-09-20T20:26:46.795Z,15.77
2022-09-20T20:29:13.902Z,16.00
2022-09-20T20:31:40.712Z,14.80
2022-09-20T20:34:08.834Z,19.43
2022-09-20T20:36:35.770Z,15.03
2022-09-20T20:39:02.634Z,17.43
2022-09-20T20:41:31.855Z,14.97
2022-09-20T20:43:58.732Z,15.13
2022-09-20T20:46:25.943Z,16.47
2022-09-20T20:48:53.096Z,14.40
2022-09-20T20:51:22.152Z,13.83
2022-09-20T20:53:51.668Z,13.20
2022-09-20T20:56:22.369Z,13.43
2022-09-20T20:58:49.351Z,16.67
2022-09-20T21:01:28.855Z,52.43
2022-09-20T21:03:57.511Z,14.17
2022-09-20T21:06:34.430Z,16.30
2022-09-20T21:09:02.019Z,14.50
2022-09-20T21:11:31.868Z,14.13
2022-09-20T21:14:00.334Z,12.83
2022-09-20T21:16:35.063Z,16.17
2022-09-20T21:19:03.935Z,11.10
2022-09-20T21:21:38.820Z,11.90
2022-09-20T21:24:08.364Z,12.33
2022-09-20T21:26:37.330Z,10.37
2022-09-20T21:29:10.951Z,10.50
2022-09-20T21:31:40.328Z,11.53
2022-09-20T21:34:08.449Z,9.53
2022-09-20T21:36:37.302Z,14.23
2022-09-20T21:39:05.218Z,15.10
2022-09-20T21:41:34.752Z,11.13
2022-09-20T21:44:03.756Z,8.10
2022-09-20T21:46:41.651Z,9.10
2022-09-20T21:49:11.150Z,10.43
2022-09-20T21:51:39.640Z,8.97
2022-09-20T21:54:06.787Z,8.97
2022-09-20T21:56:36.271Z,9.70
2022-09-20T21:59:04.466Z,8.57
2022-09-20T22:01:34.989Z,9.57
2022-09-20T22:04:07.727Z,9.40
2022-09-20T22:06:37.228Z,9.90
2022-09-20T22:09:10.580Z,8.97
2022-09-20T22:11:42.964Z,8.23
2022-09-20T22:14:11.640Z,11.47
2022-09-20T22:16:41.383Z,10.53
2022-09-20T22:19:10.248Z,9.93
2022-09-20T22:21:42.458Z,8.87
2022-09-20T22:24:11.323Z,10.23
2022-09-20T22:26:40.681Z,7.60
2022-09-20T22:29:07.789Z,8.73
2022-09-20T22:31:37.794Z,8.50
2022-09-20T22:34:07.220Z,10.00
2022-09-20T22:36:39.079Z,10.63
2022-09-20T22:39:08.224Z,10.43
2022-09-20T22:41:36.523Z,8.77
2022-09-20T22:44:04.674Z,7.93
2022-09-20T22:46:32.052Z,8.90
2022-09-20T22:48:59.047Z,8.70
2022-09-20T22:51:28.780Z,6.20
2022-09-20T22:53:55.767Z,9.23
2022-09-20T22:56:25.018Z,8.13
2022-09-20T22:58:56.331Z,10.50
2022-09-20T23:01:29.330Z,8.00
2022-09-20T23:04:23.533Z,9.77
2022-09-20T23:06:55.094Z,10.23
2022-09-20T23:09:25.476Z,9.37
2022-09-20T23:11:52.575Z,8.20
2022-09-20T23:14:23.407Z,11.43
2022-09-20T23:16:50.304Z,10.70
2022-09-20T23:19:17.666Z,13.70
2022-09-20T23:21:45.400Z,9.33
2022-09-20T23:24:14.141Z,8.70
2022-09-20T23:26:41.934Z,8.80
2022-09-20T23:29:14.501Z,11.83
2022-09-20T23:31:45.761Z,9.47
2022-09-20T23:34:14.020Z,7.23
2022-09-20T23:36:43.072Z,9.07
2022-09-20T23:39:11.671Z,8.47
2022-09-20T23:41:38.669Z,8.07
2022-09-20T23:44:06.669Z,9.23
2022-09-20T23:46:34.332Z,8.40
2022-09-20T23:49:01.574Z,8.70
2022-09-20T23:51:29.429Z,8.27
2022-09-20T23:53:57.023Z,10.17
2022-09-20T23:56:24.581Z,8.70
2022-09-20T23:58:51.853Z,9.73
